aviador You're here:

NTAA Decoded Metar

Tahiti Papeete in FRENCH POLYNESIA
Report Time2018-02-22 08:30:00
UTC Time2018-02-22 08:36:44
Flight Rules vfr VFR
WindVRB at 02 kt
Visibility9999 m
Phenomena:N/A
Clouds:Few 020 Hf
Scattered 300 Hf
Expected CloudBase > 1,600 ft AGL from Temp-Dew spread
CeilingNone
Temp26°C (ISA +11)
Dew Point22°C (79% RH)
QNH1016 hPa
Density Alt1,526 ft
Elevation7 ft
Report Wrong Elevation
Raw Report
NTAA 220830Z VRB02KT 9999 FEW020 SCT300 26/22 Q1016 NOSIG=

Extra information for NTAA:More info

Metar Taf Metar & Taf Last 4 Metars F.Rules Stats Wind Profile Meteogram Temp Stats Airport Information Weather charts Add Link Nearby VenuesMetar ALERT Operation Metar Decoded Social comments